Time;durP1;ratioP1;P1;durP2;ratioP2;P2;SDS_P1;SDS_P2;PMS_P1;PMS_P2;Temp;Humidity;BMP_temperature;BMP_pressure;BME280_temperature;BME280_humidity;BME280_pressure;Samples;Min_cycle;Max_cycle;Signal;HPM_P1;HPM_P2
2021/05/08 00:01:53;;;;;;;6.88;3.88;;;14.60;43.10;;;;;;5056985;28;20035;-73
2021/05/08 00:04:19;;;;;;;9.57;4.90;;;14.60;43.00;;;;;;5056873;28;20055;-76
2021/05/08 00:06:45;;;;;;;6.15;3.90;;;14.60;43.20;;;;;;5073390;28;20397;-75
2021/05/08 00:09:12;;;;;;;8.75;4.30;;;14.50;43.20;;;;;;5073458;28;20036;-76
2021/05/08 00:11:39;;;;;;;6.93;4.38;;;14.50;43.30;;;;;;5073188;28;20064;-74
2021/05/08 00:14:07;;;;;;;6.80;4.60;;;14.50;43.50;;;;;;5074590;28;20037;-74
2021/05/08 00:16:34;;;;;;;8.85;4.78;;;14.50;43.50;;;;;;5073431;28;20090;-74
2021/05/08 00:19:00;;;;;;;7.90;4.78;;;14.50;43.50;;;;;;5073537;28;20040;-75
2021/05/08 00:21:27;;;;;;;10.02;4.57;;;14.40;43.60;;;;;;5056365;28;20406;-73
2021/05/08 00:23:53;;;;;;;8.52;4.75;;;14.40;43.80;;;;;;5056936;28;20033;-73
2021/05/08 00:26:19;;;;;;;8.95;4.90;;;14.40;43.90;;;;;;5076200;28;20433;-73
2021/05/08 00:28:45;;;;;;;6.93;4.10;;;14.40;44.10;;;;;;5075235;28;20504;-73
2021/05/08 00:31:12;;;;;;;7.70;4.65;;;14.30;44.20;;;;;;5073282;28;20160;-75
2021/05/08 00:33:38;;;;;;;7.63;5.00;;;14.30;44.20;;;;;;5056386;28;20059;-75
2021/05/08 00:36:06;;;;;;;7.28;4.22;;;14.30;44.40;;;;;;5072494;28;20131;-74
2021/05/08 00:38:32;;;;;;;7.47;4.45;;;14.30;44.40;;;;;;5040457;28;20346;-75
2021/05/08 00:40:58;;;;;;;7.35;4.15;;;14.30;44.50;;;;;;5072887;28;20040;-74
2021/05/08 00:43:25;;;;;;;7.13;4.55;;;14.30;44.60;;;;;;5073140;28;20037;-75
2021/05/08 00:45:51;;;;;;;8.52;4.75;;;14.20;44.70;;;;;;5056410;28;20032;-76
2021/05/08 00:48:18;;;;;;;6.70;4.10;;;14.20;44.90;;;;;;5055850;28;20036;-74
2021/05/08 00:50:44;;;;;;;8.13;4.40;;;14.20;45.10;;;;;;5072356;28;20041;-75
2021/05/08 00:53:12;;;;;;;8.35;4.68;;;14.20;45.20;;;;;;5074463;28;20059;-74
2021/05/08 00:55:39;;;;;;;9.27;4.38;;;14.20;45.30;;;;;;5072519;28;20409;-75
2021/05/08 00:58:07;;;;;;;6.03;4.47;;;14.20;45.30;;;;;;5072388;28;20043;-75
2021/05/08 01:00:36;;;;;;;8.95;4.32;;;14.20;45.40;;;;;;5073611;28;20068;-74
2021/05/08 01:03:02;;;;;;;5.32;4.00;;;14.20;45.50;;;;;;5055555;28;20127;-76
2021/05/08 01:05:32;;;;;;;10.30;4.70;;;14.20;45.60;;;;;;5072357;28;20044;-76
2021/05/08 01:08:01;;;;;;;7.03;4.47;;;14.20;45.70;;;;;;5072343;28;20040;-73
2021/05/08 01:10:29;;;;;;;9.93;4.90;;;14.20;45.80;;;;;;5071888;28;20059;-73
2021/05/08 01:13:01;;;;;;;8.00;4.38;;;14.20;45.90;;;;;;5072075;28;20036;-73
2021/05/08 01:15:29;;;;;;;6.20;4.00;;;14.20;46.00;;;;;;5072140;28;20032;-74
2021/05/08 01:17:56;;;;;;;7.82;4.20;;;14.20;46.00;;;;;;5055434;28;20040;-74
2021/05/08 01:20:24;;;;;;;7.90;4.30;;;14.20;46.20;;;;;;5055789;28;20488;-75
2021/05/08 01:22:52;;;;;;;5.35;3.67;;;14.20;46.30;;;;;;5055754;28;20036;-74
2021/05/08 01:25:24;;;;;;;5.88;3.78;;;14.20;46.70;;;;;;5073387;28;20044;-74
2021/05/08 01:27:59;;;;;;;7.15;4.45;;;14.30;47.20;;;;;;5055580;28;20040;-74
2021/05/08 01:30:34;;;;;;;5.82;3.45;;;14.20;47.30;;;;;;5055732;28;20131;-73
2021/05/08 01:33:05;;;;;;;7.75;3.88;;;14.30;47.60;;;;;;5072193;28;20044;-74
2021/05/08 01:35:34;;;;;;;5.35;3.50;;;14.30;47.80;;;;;;5072961;28;20041;-74
2021/05/08 01:38:00;;;;;;;8.90;4.57;;;14.30;48.20;;;;;;5055346;28;20036;-74
2021/05/08 01:40:37;;;;;;;6.85;3.53;;;14.30;48.60;;;;;;5055268;28;20143;-75
2021/05/08 01:43:08;;;;;;;8.25;3.70;;;14.30;48.90;;;;;;5071659;28;20059;-76
2021/05/08 01:45:34;;;;;;;9.05;3.85;;;14.30;48.90;;;;;;5071498;28;20236;-75
2021/05/08 01:48:08;;;;;;;7.25;3.72;;;14.30;49.20;;;;;;5073363;28;20036;-74
2021/05/08 01:50:34;;;;;;;7.30;3.95;;;14.30;49.30;;;;;;5071368;28;20032;-73
2021/05/08 01:53:00;;;;;;;6.72;3.58;;;14.30;49.50;;;;;;5072542;28;20210;-73
2021/05/08 01:55:28;;;;;;;5.82;3.50;;;14.30;49.70;;;;;;5071604;28;20039;-72
2021/05/08 01:57:58;;;;;;;7.55;3.53;;;14.30;49.90;;;;;;5055525;28;20043;-72
2021/05/08 02:00:37;;;;;;;5.32;2.90;;;14.30;50.10;;;;;;5072092;28;20066;-72
2021/05/08 02:03:04;;;;;;;6.80;3.55;;;14.30;50.50;;;;;;5071570;28;20081;-74
2021/05/08 02:05:39;;;;;;;7.43;3.70;;;14.40;50.70;;;;;;5071393;28;20040;-74
2021/05/08 02:08:13;;;;;;;8.23;3.40;;;14.40;50.80;;;;;;5071053;28;20028;-74
2021/05/08 02:10:41;;;;;;;6.07;3.28;;;14.40;51.00;;;;;;5072378;28;20061;-72
2021/05/08 02:13:09;;;;;;;7.30;3.83;;;14.40;51.40;;;;;;5054689;28;20489;-73
2021/05/08 02:15:36;;;;;;;5.55;3.15;;;14.40;51.70;;;;;;5071644;28;20039;-74
2021/05/08 02:18:06;;;;;;;6.60;3.78;;;14.40;52.00;;;;;;5054844;28;20041;-73
2021/05/08 02:20:36;;;;;;;5.53;3.20;;;14.40;52.60;;;;;;5071134;28;20469;-73
2021/05/08 02:23:06;;;;;;;9.05;3.95;;;14.40;52.80;;;;;;5071266;28;20397;-73
2021/05/08 02:25:33;;;;;;;5.18;3.60;;;14.30;53.10;;;;;;5072189;28;20400;-73
2021/05/08 02:28:00;;;;;;;7.07;3.85;;;14.30;53.30;;;;;;5072937;28;20036;-74
2021/05/08 02:30:28;;;;;;;5.00;3.63;;;14.30;54.10;;;;;;5056491;28;20078;-73
2021/05/08 02:32:55;;;;;;;32.88;4.88;;;14.30;54.50;;;;;;5059249;28;20048;-73
2021/05/08 02:35:22;;;;;;;9.35;4.00;;;14.30;54.70;;;;;;5058946;28;20400;-72
2021/05/08 02:37:49;;;;;;;13.07;3.75;;;14.30;54.90;;;;;;5075263;28;20128;-73
2021/05/08 02:40:24;;;;;;;7.80;3.63;;;14.40;55.40;;;;;;5075116;28;20398;-73
2021/05/08 02:42:50;;;;;;;7.68;3.47;;;14.30;56.00;;;;;;5075184;28;20404;-72
2021/05/08 02:45:18;;;;;;;7.65;3.78;;;14.30;56.30;;;;;;5074785;28;20040;-73
2021/05/08 02:47:47;;;;;;;8.38;3.20;;;14.30;56.50;;;;;;5058082;28;20104;-73
2021/05/08 02:50:15;;;;;;;6.55;3.85;;;14.30;56.90;;;;;;5058647;28;20068;-73
2021/05/08 02:52:41;;;;;;;4.90;3.25;;;14.30;57.40;;;;;;5074991;28;20545;-73
2021/05/08 02:55:09;;;;;;;7.10;3.97;;;14.30;57.70;;;;;;5075490;28;20059;-73
2021/05/08 02:57:36;;;;;;;6.32;3.95;;;14.20;58.00;;;;;;5058315;28;20431;-73
2021/05/08 03:00:09;;;;;;;8.93;3.85;;;14.20;58.30;;;;;;5074595;28;20219;-74
2021/05/08 03:02:36;;;;;;;7.22;3.70;;;14.30;58.60;;;;;;5057928;28;20036;-74
2021/05/08 03:05:03;;;;;;;5.00;3.45;;;14.20;59.30;;;;;;5075960;28;20051;-73
2021/05/08 03:07:30;;;;;;;5.65;3.35;;;14.10;59.80;;;;;;5074914;28;20033;-73
2021/05/08 03:09:57;;;;;;;7.93;4.00;;;14.10;60.10;;;;;;5058148;28;20024;-73
2021/05/08 03:12:23;;;;;;;7.35;4.20;;;14.20;60.20;;;;;;5058524;28;20075;-74
2021/05/08 03:14:49;;;;;;;7.88;4.13;;;14.10;60.50;;;;;;5075677;28;20094;-74
2021/05/08 03:17:16;;;;;;;9.73;4.63;;;14.10;60.90;;;;;;5075536;28;20036;-73
2021/05/08 03:19:47;;;;;;;6.20;3.85;;;14.10;61.20;;;;;;5075775;28;20036;-74
2021/05/08 03:22:14;;;;;;;8.75;4.20;;;14.10;61.10;;;;;;5074561;28;20036;-72
2021/05/08 03:24:40;;;;;;;7.55;4.47;;;14.10;61.20;;;;;;5057546;28;20492;-72
2021/05/08 03:27:06;;;;;;;8.32;4.60;;;14.10;61.80;;;;;;5058230;28;20040;-73
2021/05/08 03:29:32;;;;;;;10.30;4.82;;;14.10;61.80;;;;;;5057503;28;20112;-72
2021/05/08 03:31:59;;;;;;;5.93;4.10;;;14.10;62.30;;;;;;5073754;28;20044;-72
2021/05/08 03:34:25;;;;;;;8.35;4.35;;;14.00;62.40;;;;;;5074593;28;20079;-72
2021/05/08 03:36:52;;;;;;;7.53;4.10;;;14.10;62.50;;;;;;5059196;28;20082;-72
2021/05/08 03:39:18;;;;;;;8.57;4.00;;;14.10;63.10;;;;;;5075700;28;20035;-72
2021/05/08 03:41:44;;;;;;;10.18;4.85;;;14.00;63.70;;;;;;5074653;28;20127;-72
2021/05/08 03:44:10;;;;;;;10.35;4.88;;;14.00;64.00;;;;;;5075110;28;20123;-74
2021/05/08 03:46:36;;;;;;;9.48;4.75;;;14.00;64.00;;;;;;5074228;28;20071;-73
2021/05/08 03:49:02;;;;;;;11.52;4.30;;;14.00;64.20;;;;;;5057737;28;20044;-72
2021/05/08 03:51:28;;;;;;;8.02;5.32;;;14.00;64.60;;;;;;5073632;28;20045;-73
2021/05/08 03:53:55;;;;;;;10.52;5.00;;;14.00;64.80;;;;;;5075407;28;20116;-73
2021/05/08 03:56:22;;;;;;;8.80;5.18;;;14.00;65.30;;;;;;5073567;28;20036;-73
2021/05/08 03:58:48;;;;;;;9.10;5.63;;;13.90;65.70;;;;;;5074582;28;20040;-74
2021/05/08 04:01:14;;;;;;;10.57;4.97;;;13.90;65.90;;;;;;5074678;28;20032;-74
2021/05/08 04:03:41;;;;;;;10.35;5.10;;;13.90;66.10;;;;;;5074790;28;20122;-73
2021/05/08 04:06:07;;;;;;;8.48;4.70;;;13.90;66.50;;;;;;5074782;28;20036;-73
2021/05/08 04:08:33;;;;;;;6.00;4.35;;;13.90;66.70;;;;;;5073408;28;20378;-72
2021/05/08 04:10:59;;;;;;;8.60;5.07;;;13.80;67.20;;;;;;5074508;28;20134;-73
2021/05/08 04:13:26;;;;;;;6.38;3.90;;;13.70;67.40;;;;;;5073106;28;20463;-74
2021/05/08 04:15:52;;;;;;;4.35;3.95;;;13.70;67.40;;;;;;5074416;28;20060;-72
2021/05/08 04:18:18;;;;;;;4.82;3.85;;;13.70;67.50;;;;;;5056882;28;20485;-72
2021/05/08 04:20:47;;;;;;;7.53;3.80;;;13.60;67.80;;;;;;5073581;28;20074;-73
2021/05/08 04:23:13;;;;;;;6.97;4.32;;;13.50;68.00;;;;;;5073068;28;20086;-73
2021/05/08 04:25:40;;;;;;;7.05;4.57;;;13.50;68.20;;;;;;5072805;28;20037;-73
2021/05/08 04:28:10;;;;;;;6.22;3.75;;;13.50;68.40;;;;;;5074113;28;20124;-72
2021/05/08 04:30:36;;;;;;;6.80;4.40;;;13.40;68.60;;;;;;5056390;28;20064;-73
2021/05/08 04:33:03;;;;;;;8.80;4.40;;;13.40;68.90;;;;;;5072896;28;20025;-73
2021/05/08 04:35:29;;;;;;;7.85;4.70;;;13.40;68.90;;;;;;5073950;28;20037;-73
2021/05/08 04:38:02;;;;;;;7.05;4.97;;;13.30;68.90;;;;;;5073718;28;20048;-73
2021/05/08 04:40:28;;;;;;;7.45;4.68;;;13.30;69.00;;;;;;5056312;28;20408;-72
2021/05/08 04:42:54;;;;;;;5.95;4.82;;;13.30;69.30;;;;;;5072355;28;20090;-72
2021/05/08 04:45:20;;;;;;;7.82;5.47;;;13.30;69.40;;;;;;5072585;28;20048;-73
2021/05/08 04:47:46;;;;;;;8.25;5.00;;;13.30;69.70;;;;;;5072770;28;20041;-74
2021/05/08 04:50:13;;;;;;;11.15;5.95;;;13.30;69.90;;;;;;5072657;28;20047;-73
2021/05/08 04:52:38;;;;;;;8.25;5.82;;;13.20;70.00;;;;;;5072522;28;20546;-73
2021/05/08 04:55:05;;;;;;;8.95;6.10;;;13.20;70.40;;;;;;5072745;28;20040;-72
2021/05/08 04:57:31;;;;;;;7.53;6.00;;;13.10;70.50;;;;;;5072272;28;20033;-73
2021/05/08 04:59:57;;;;;;;7.97;6.75;;;13.10;70.70;;;;;;5072723;28;20062;-71
2021/05/08 05:02:23;;;;;;;10.95;6.55;;;13.00;70.80;;;;;;5055750;28;20484;-72
2021/05/08 05:04:50;;;;;;;8.07;6.32;;;13.00;71.00;;;;;;5072365;28;20075;-73
2021/05/08 05:07:16;;;;;;;7.57;5.82;;;12.90;71.40;;;;;;5072127;28;20397;-73
2021/05/08 05:09:42;;;;;;;9.38;6.43;;;12.90;71.20;;;;;;5072596;28;20067;-72
2021/05/08 05:12:08;;;;;;;9.05;5.70;;;12.90;71.20;;;;;;5054947;28;20059;-73
2021/05/08 05:14:34;;;;;;;8.45;6.20;;;12.90;71.30;;;;;;5055849;28;20036;-73
2021/05/08 05:17:00;;;;;;;7.38;5.28;;;12.80;71.30;;;;;;5055428;28;20481;-72
2021/05/08 05:19:26;;;;;;;6.35;5.50;;;12.80;71.40;;;;;;5073360;28;20047;-73
2021/05/08 05:21:52;;;;;;;7.20;5.57;;;12.70;71.60;;;;;;5055312;28;20040;-73
2021/05/08 05:24:18;;;;;;;7.65;5.35;;;12.70;71.40;;;;;;5072957;28;20078;-73
2021/05/08 05:26:44;;;;;;;8.13;5.60;;;12.60;71.70;;;;;;5072906;28;20033;-73
2021/05/08 05:29:10;;;;;;;7.57;5.93;;;12.60;71.90;;;;;;5071891;28;20086;-72
2021/05/08 05:31:37;;;;;;;7.05;5.47;;;12.50;72.70;;;;;;5071851;28;20047;-73
2021/05/08 05:34:04;;;;;;;10.25;5.53;;;12.50;72.30;;;;;;5055237;28;20062;-74
2021/05/08 05:36:31;;;;;;;12.23;5.47;;;12.50;72.40;;;;;;5071612;28;20067;-72
2021/05/08 05:38:59;;;;;;;11.38;6.05;;;12.50;72.60;;;;;;5072022;28;20145;-73
2021/05/08 05:41:25;;;;;;;9.07;5.55;;;12.40;72.80;;;;;;5071844;28;20037;-73
2021/05/08 05:43:51;;;;;;;9.50;6.30;;;12.30;73.00;;;;;;5073067;28;20086;-72
2021/05/08 05:46:18;;;;;;;7.72;5.65;;;12.30;73.20;;;;;;5072156;28;20433;-73
2021/05/08 05:48:44;;;;;;;11.52;6.10;;;12.30;73.20;;;;;;5073067;28;20040;-72
2021/05/08 05:51:10;;;;;;;8.48;6.20;;;12.30;73.60;;;;;;5073080;28;20055;-73
2021/05/08 05:53:36;;;;;;;7.85;5.25;;;12.30;73.50;;;;;;5071701;28;20073;-73
2021/05/08 05:56:02;;;;;;;8.57;5.75;;;12.20;73.70;;;;;;5054828;28;20029;-74
2021/05/08 05:58:29;;;;;;;8.82;5.80;;;12.20;73.90;;;;;;5071202;28;20036;-72
2021/05/08 06:00:54;;;;;;;10.10;6.22;;;12.10;74.00;;;;;;5072879;28;20025;-74
2021/05/08 06:03:21;;;;;;;9.82;6.15;;;12.10;74.40;;;;;;5072786;28;20433;-74
2021/05/08 06:05:47;;;;;;;8.95;6.63;;;12.10;74.60;;;;;;5071622;28;20040;-75
2021/05/08 06:08:13;;;;;;;10.60;6.22;;;12.00;74.80;;;;;;5054477;28;20373;-75
2021/05/08 06:10:39;;;;;;;7.70;6.15;;;12.10;75.10;;;;;;5072575;28;20534;-74
2021/05/08 06:13:05;;;;;;;8.80;5.82;;;12.00;75.30;;;;;;5071794;28;20040;-73
2021/05/08 06:15:31;;;;;;;6.10;5.50;;;12.00;75.50;;;;;;5072997;28;20576;-74
2021/05/08 06:17:57;;;;;;;6.95;5.28;;;12.00;75.60;;;;;;5071170;28;20112;-74
2021/05/08 06:20:23;;;;;;;8.15;5.82;;;12.00;75.70;;;;;;5072470;28;20477;-74
2021/05/08 06:22:50;;;;;;;8.27;5.53;;;12.00;75.90;;;;;;5054649;28;20137;-74
2021/05/08 06:25:16;;;;;;;6.57;5.00;;;12.00;76.00;;;;;;5071108;28;20039;-75
2021/05/08 06:27:42;;;;;;;5.20;4.60;;;12.00;76.20;;;;;;5072180;28;20123;-74
2021/05/08 06:30:09;;;;;;;5.38;3.97;;;12.00;76.20;;;;;;5072275;28;20070;-75
2021/05/08 06:32:35;;;;;;;6.32;4.63;;;12.00;76.20;;;;;;5054510;28;20064;-74
2021/05/08 06:35:01;;;;;;;6.18;4.13;;;12.00;76.50;;;;;;5072444;28;20074;-73
2021/05/08 06:37:27;;;;;;;5.95;4.63;;;11.90;77.00;;;;;;5071253;28;20082;-73
2021/05/08 06:39:52;;;;;;;5.90;4.40;;;11.90;77.00;;;;;;5072349;28;20053;-75
2021/05/08 06:42:19;;;;;;;7.28;4.65;;;11.90;77.70;;;;;;5071633;28;20036;-75
2021/05/08 06:44:45;;;;;;;5.47;3.72;;;11.90;78.30;;;;;;5073022;28;20082;-75
2021/05/08 06:47:16;;;;;;;5.00;4.05;;;11.80;78.40;;;;;;5071398;28;20039;-76
2021/05/08 06:49:43;;;;;;;7.43;4.63;;;11.90;78.00;;;;;;5071067;28;20032;-74
2021/05/08 06:52:09;;;;;;;8.05;5.28;;;11.90;78.30;;;;;;5070980;28;20044;-75
2021/05/08 06:54:35;;;;;;;6.65;4.55;;;11.80;78.50;;;;;;5054015;28;20044;-74
2021/05/08 06:57:01;;;;;;;7.18;5.32;;;11.80;78.60;;;;;;5072282;28;20370;-74
2021/05/08 06:59:27;;;;;;;7.25;5.47;;;11.90;78.60;;;;;;5071551;28;20143;-74
2021/05/08 07:01:53;;;;;;;6.63;4.65;;;11.90;79.10;;;;;;5072447;28;20123;-74
2021/05/08 07:04:20;;;;;;;8.82;5.13;;;11.80;79.50;;;;;;5071273;28;20040;-73
2021/05/08 07:06:47;;;;;;;7.20;5.50;;;11.80;79.60;;;;;;5054201;28;20072;-74
2021/05/08 07:09:13;;;;;;;5.43;4.38;;;11.90;79.50;;;;;;5072448;28;20070;-75
2021/05/08 07:11:39;;;;;;;6.72;5.07;;;12.00;79.30;;;;;;5070589;28;20056;-79
2021/05/08 07:14:05;;;;;;;6.72;4.72;;;12.00;79.30;;;;;;5071806;28;20040;-77
2021/05/08 07:16:31;;;;;;;5.13;4.22;;;12.00;79.60;;;;;;5070896;28;20040;-74
2021/05/08 07:18:57;;;;;;;6.75;4.40;;;12.00;79.60;;;;;;5073049;28;20033;-74
2021/05/08 07:21:23;;;;;;;4.80;4.28;;;12.10;79.80;;;;;;5075628;28;20396;-72
2021/05/08 07:23:49;;;;;;;7.10;4.35;;;12.00;79.80;;;;;;5075186;28;20070;-74
2021/05/08 07:26:15;;;;;;;5.70;3.85;;;12.00;80.50;;;;;;5075758;28;20115;-71
2021/05/08 07:28:42;;;;;;;7.22;4.43;;;12.10;80.10;;;;;;5075278;28;20492;-74
2021/05/08 07:31:07;;;;;;;8.82;4.25;;;12.10;80.50;;;;;;5074080;28;20036;-76
2021/05/08 07:33:34;;;;;;;4.75;4.10;;;12.00;80.90;;;;;;5074446;28;20436;-80
2021/05/08 07:36:00;;;;;;;6.20;4.68;;;12.00;81.10;;;;;;5057773;28;20024;-77
2021/05/08 07:38:26;;;;;;;6.95;4.78;;;12.00;81.30;;;;;;5073800;28;20485;-78
2021/05/08 07:40:54;;;;;;;5.72;4.75;;;12.00;81.10;;;;;;5073950;28;20040;-75
2021/05/08 07:43:21;;;;;;;6.55;4.20;;;12.00;81.40;;;;;;5074808;28;20035;-78
2021/05/08 07:45:48;;;;;;;6.20;4.57;;;12.00;81.60;;;;;;5057511;28;20119;-72
2021/05/08 07:48:14;;;;;;;7.20;4.68;;;12.00;81.90;;;;;;5075123;28;20445;-72
2021/05/08 07:50:41;;;;;;;6.53;4.43;;;12.00;81.80;;;;;;5073688;28;20041;-75
2021/05/08 07:53:07;;;;;;;5.80;4.63;;;12.10;82.30;;;;;;5073346;28;20036;-73
2021/05/08 07:55:34;;;;;;;7.25;5.43;;;12.10;82.20;;;;;;5057258;28;20040;-74
2021/05/08 07:58:07;;;;;;;6.70;4.53;;;12.10;82.20;;;;;;5073725;28;20063;-73
2021/05/08 08:00:34;;;;;;;4.82;4.05;;;12.10;82.10;;;;;;5075206;28;20040;-74
2021/05/08 08:03:00;;;;;;;5.43;4.82;;;12.20;82.30;;;;;;5073595;28;20492;-75
2021/05/08 08:05:26;;;;;;;5.82;4.72;;;12.20;82.20;;;;;;5073387;28;20033;-71
2021/05/08 08:07:52;;;;;;;7.50;4.47;;;12.30;82.60;;;;;;5073400;28;20134;-72
2021/05/08 08:10:19;;;;;;;5.10;4.50;;;12.30;82.40;;;;;;5073289;28;20160;-71
2021/05/08 08:12:46;;;;;;;5.75;4.10;;;12.30;83.00;;;;;;5073500;28;20043;-71
2021/05/08 08:15:13;;;;;;;5.38;4.53;;;12.30;83.00;;;;;;5074503;28;20032;-70
2021/05/08 08:17:39;;;;;;;7.75;4.68;;;12.40;82.80;;;;;;5074235;28;20028;-73
2021/05/08 08:20:11;;;;;;;7.55;4.60;;;12.40;82.80;;;;;;5073383;28;20414;-71
2021/05/08 08:22:39;;;;;;;8.48;4.78;;;12.40;82.80;;;;;;5073356;28;20071;-72
2021/05/08 08:25:08;;;;;;;6.43;4.07;;;12.50;82.90;;;;;;5056731;28;20055;-70
2021/05/08 08:27:34;;;;;;;9.98;5.15;;;12.50;83.10;;;;;;5056483;28;20460;-71
2021/05/08 08:30:00;;;;;;;6.53;3.97;;;12.50;82.80;;;;;;5055880;28;20500;-71
2021/05/08 08:32:26;;;;;;;5.45;4.07;;;12.50;83.10;;;;;;5074102;28;20028;-71
2021/05/08 08:34:52;;;;;;;5.60;4.20;;;12.60;83.30;;;;;;5073110;28;20473;-72
2021/05/08 08:37:18;;;;;;;6.90;4.38;;;12.50;83.40;;;;;;5072859;28;20511;-72
2021/05/08 08:39:44;;;;;;;5.13;3.95;;;12.60;83.50;;;;;;5072922;28;20052;-72
2021/05/08 08:42:10;;;;;;;5.38;3.67;;;12.60;83.60;;;;;;5056049;28;20068;-71
2021/05/08 08:44:37;;;;;;;4.35;3.65;;;12.60;83.50;;;;;;5057189;28;20108;-71
2021/05/08 08:47:04;;;;;;;5.93;4.00;;;12.60;84.10;;;;;;5055845;28;20400;-73
2021/05/08 08:49:31;;;;;;;5.53;4.00;;;12.60;83.90;;;;;;5072507;28;20511;-73
2021/05/08 08:51:57;;;;;;;6.55;3.60;;;12.60;83.90;;;;;;5072671;28;20040;-72
2021/05/08 08:54:23;;;;;;;5.20;3.83;;;12.70;84.00;;;;;;5072637;28;20044;-71
2021/05/08 08:56:50;;;;;;;3.83;3.30;;;12.70;83.90;;;;;;5072805;28;20032;-71
2021/05/08 09:01:50;;;;;;;4.47;3.30;;;12.70;84.30;;;;;;5073385;28;20040;-72
2021/05/08 09:04:17;;;;;;;3.40;3.10;;;12.60;84.30;;;;;;5071870;28;20033;-72
2021/05/08 09:06:46;;;;;;;5.82;3.15;;;12.70;84.30;;;;;;5073402;28;20036;-72
2021/05/08 09:09:14;;;;;;;4.05;3.15;;;12.70;84.40;;;;;;5073144;28;20573;-73
2021/05/08 09:11:52;;;;;;;5.07;3.10;;;12.70;84.50;;;;;;5071938;28;20113;-72
2021/05/08 09:14:32;;;;;;;7.50;3.15;;;12.70;84.50;;;;;;5073397;28;20115;-72
2021/05/08 09:17:14;;;;;;;5.90;3.15;;;12.70;84.80;;;;;;5074199;28;20036;-71
2021/05/08 09:19:45;;;;;;;4.13;3.25;;;12.70;84.70;;;;;;5073212;28;20036;-73
2021/05/08 09:22:29;;;;;;;6.18;3.00;;;12.70;85.00;;;;;;5073449;28;20119;-72
2021/05/08 09:25:03;;;;;;;3.83;2.90;;;12.70;85.00;;;;;;5072971;28;20493;-75
2021/05/08 09:27:35;;;;;;;4.93;2.92;;;12.70;85.10;;;;;;5072413;28;20035;-73
2021/05/08 09:30:05;;;;;;;3.47;3.00;;;12.70;85.40;;;;;;5071901;28;20500;-73
2021/05/08 09:32:39;;;;;;;6.22;2.78;;;12.70;85.90;;;;;;5055241;28;20090;-73
2021/05/08 09:35:11;;;;;;;5.83;2.90;;;12.70;85.40;;;;;;5072034;28;20374;-73
2021/05/08 09:37:37;;;;;;;3.63;2.60;;;12.70;85.70;;;;;;5054962;28;20036;-72
2021/05/08 09:40:13;;;;;;;2.78;2.58;;;12.70;85.50;;;;;;5072784;28;20028;-74
2021/05/08 09:42:44;;;;;;;3.85;2.45;;;12.70;85.80;;;;;;5055200;28;20037;-72
2021/05/08 09:45:12;;;;;;;3.75;2.50;;;12.70;86.00;;;;;;5073084;28;20041;-73
2021/05/08 09:47:40;;;;;;;6.57;2.88;;;12.70;86.20;;;;;;5071755;28;20488;-73
2021/05/08 09:50:09;;;;;;;4.75;2.28;;;12.70;86.60;;;;;;5055548;28;20090;-74
2021/05/08 09:52:55;;;;;;;3.85;2.70;;;12.70;86.40;;;;;;5056154;28;20485;-74
2021/05/08 09:55:23;;;;;;;4.32;2.60;;;12.70;86.50;;;;;;5072429;28;20033;-71
2021/05/08 09:57:59;;;;;;;3.03;2.70;;;12.70;86.60;;;;;;5054734;28;20039;-72
2021/05/08 10:00:33;;;;;;;3.13;2.50;;;12.70;87.00;;;;;;5072073;28;20071;-73
2021/05/08 10:03:13;;;;;;;2.80;2.60;;;12.70;87.30;;;;;;5054820;28;20048;-71
2021/05/08 10:05:41;;;;;;;4.22;3.03;;;12.70;87.60;;;;;;5055105;28;20032;-71
2021/05/08 10:08:09;;;;;;;6.95;3.10;;;12.60;87.80;;;;;;5054750;28;20468;-74
2021/05/08 10:10:36;;;;;;;5.70;2.67;;;12.60;87.70;;;;;;5054648;28;20484;-73
2021/05/08 10:13:11;;;;;;;5.88;2.83;;;12.70;87.90;;;;;;5072026;28;20032;-79
2021/05/08 10:15:43;;;;;;;7.13;3.13;;;12.70;87.70;;;;;;5073038;28;20032;-77
2021/05/08 10:18:12;;;;;;;5.38;2.88;;;12.70;87.90;;;;;;5055738;28;20123;-76
2021/05/08 10:20:46;;;;;;;3.00;2.42;;;12.70;88.00;;;;;;5071597;28;20039;-76
2021/05/08 10:23:14;;;;;;;3.08;2.78;;;12.70;88.20;;;;;;5039305;28;20029;-75
2021/05/08 10:25:41;;;;;;;4.00;2.80;;;12.70;88.30;;;;;;5071517;28;20048;-74
2021/05/08 10:28:09;;;;;;;4.30;3.08;;;12.70;88.30;;;;;;5072443;28;20158;-72
2021/05/08 10:30:46;;;;;;;3.05;2.75;;;12.70;89.00;;;;;;5072106;28;20515;-75
2021/05/08 10:33:14;;;;;;;3.97;3.00;;;12.70;88.60;;;;;;5054578;28;20067;-73
2021/05/08 10:35:44;;;;;;;2.95;2.65;;;12.70;88.40;;;;;;5071563;28;20438;-75
2021/05/08 10:38:27;;;;;;;6.00;2.92;;;12.80;88.50;;;;;;5071259;28;20075;-74
2021/05/08 10:40:59;;;;;;;6.30;3.38;;;12.80;88.80;;;;;;5055139;28;20032;-76
2021/05/08 10:43:54;;;;;;;7.82;3.35;;;12.80;88.80;;;;;;5071595;28;20029;-72
2021/05/08 10:46:24;;;;;;;6.17;3.67;;;12.80;88.80;;;;;;5071116;28;20527;-78
2021/05/08 10:49:06;;;;;;;5.47;2.90;;;12.80;88.80;;;;;;5072123;28;20037;-74
2021/05/08 10:51:58;;;;;;;4.60;2.88;;;12.80;88.80;;;;;;5071246;28;20086;-70
2021/05/08 10:54:42;;;;;;;5.53;2.50;;;12.90;91.30;;;;;;5058085;28;20036;-72
2021/05/08 10:57:26;;;;;;;5.22;2.58;;;13.20;91.60;;;;;;5076071;28;20037;-78
2021/05/08 11:00:04;;;;;;;9.90;2.90;;;13.50;91.20;;;;;;5075148;28;20047;-69
2021/05/08 11:02:46;;;;;;;5.22;2.50;;;13.70;90.90;;;;;;5075082;28;20443;-75
2021/05/08 11:05:31;;;;;;;3.53;2.35;;;13.90;90.30;;;;;;5075117;28;20044;-70
2021/05/08 11:07:58;;;;;;;5.57;2.70;;;14.10;90.10;;;;;;5075123;28;20896;-68
2021/05/08 11:10:33;;;;;;;4.93;2.58;;;14.20;90.30;;;;;;5074508;28;20583;-70
2021/05/08 11:13:14;;;;;;;2.97;2.72;;;14.40;90.10;;;;;;5074689;28;20127;-73
2021/05/08 11:15:55;;;;;;;3.45;2.40;;;14.40;87.90;;;;;;5075797;28;20397;-74
2021/05/08 11:21:02;;;;;;;2.90;2.50;;;14.30;85.50;;;;;;5074607;28;20047;-76
2021/05/08 11:23:51;;;;;;;3.85;2.72;;;14.20;85.20;;;;;;5057666;28;20040;-75
2021/05/08 11:26:24;;;;;;;2.72;2.40;;;14.10;85.10;;;;;;5074659;28;20060;-76
2021/05/08 11:29:13;;;;;;;3.15;2.80;;;14.10;85.10;;;;;;5075571;28;20032;-76
2021/05/08 11:31:40;;;;;;;5.22;3.00;;;14.00;85.30;;;;;;5057761;28;20106;-74
2021/05/08 11:34:15;;;;;;;4.50;3.55;;;13.90;85.30;;;;;;5057346;28;20041;-73
2021/05/08 11:36:52;;;;;;;3.65;3.33;;;13.80;85.60;;;;;;5057664;28;20051;-71
2021/05/08 11:39:25;;;;;;;5.50;3.65;;;13.70;85.80;;;;;;5075259;28;20115;-70
2021/05/08 11:42:03;;;;;;;3.80;3.45;;;13.70;86.10;;;;;;5057212;28;20501;-72
2021/05/08 11:44:35;;;;;;;5.18;3.70;;;13.70;86.30;;;;;;5056923;28;20118;-72
2021/05/08 11:47:30;;;;;;;5.22;3.72;;;13.60;86.20;;;;;;5073952;28;20138;-77
2021/05/08 11:50:14;;;;;;;6.45;4.28;;;13.60;86.30;;;;;;5074148;28;20036;-79
2021/05/08 11:52:48;;;;;;;7.93;4.10;;;13.50;86.70;;;;;;5074188;28;20493;-75
2021/05/08 11:55:17;;;;;;;5.00;3.88;;;13.50;86.70;;;;;;5074074;28;20028;-72
2021/05/08 11:57:48;;;;;;;6.07;3.55;;;13.40;86.80;;;;;;5057265;28;20060;-74
2021/05/08 12:00:32;;;;;;;8.13;3.50;;;13.40;87.00;;;;;;5057552;28;20062;-78
2021/05/08 12:03:16;;;;;;;4.95;3.53;;;13.40;87.00;;;;;;5074904;28;20044;-77
2021/05/08 12:05:46;;;;;;;5.85;3.85;;;13.40;86.80;;;;;;5073737;28;20036;-76
2021/05/08 12:08:14;;;;;;;5.03;3.80;;;13.30;87.00;;;;;;5075146;28;20050;-76
2021/05/08 12:10:42;;;;;;;5.20;4.10;;;13.30;87.10;;;;;;5074913;28;20061;-76
2021/05/08 12:13:10;;;;;;;4.25;3.83;;;13.30;87.30;;;;;;5074420;28;20090;-77
2021/05/08 12:15:41;;;;;;;6.47;4.22;;;13.30;87.30;;;;;;5073152;28;20036;-70
2021/05/08 12:18:10;;;;;;;8.57;5.10;;;13.20;87.20;;;;;;5057063;28;20115;-71
2021/05/08 12:20:46;;;;;;;10.90;4.70;;;13.10;90.90;;;;;;5073449;28;20051;-75
2021/05/08 12:23:24;;;;;;;7.68;4.65;;;13.20;90.60;;;;;;5056812;28;20066;-79
2021/05/08 12:26:16;;;;;;;6.60;5.35;;;13.30;89.60;;;;;;5075175;28;20036;-79
2021/05/08 12:28:45;;;;;;;8.95;5.28;;;13.30;88.80;;;;;;5069185;28;20036;-76
2021/05/08 12:31:23;;;;;;;12.00;5.32;;;13.30;88.30;;;;;;5074074;28;20045;-73
2021/05/08 12:33:50;;;;;;;10.70;6.10;;;13.20;88.20;;;;;;5074015;28;20515;-74
2021/05/08 12:36:20;;;;;;;9.05;5.32;;;13.20;88.00;;;;;;5056430;28;20127;-74
2021/05/08 12:38:47;;;;;;;10.25;5.50;;;13.20;88.20;;;;;;5056473;28;20071;-75
2021/05/08 12:41:37;;;;;;;9.25;6.00;;;13.10;88.20;;;;;;5073324;28;20044;-74
2021/05/08 12:44:11;;;;;;;11.38;6.05;;;13.10;88.50;;;;;;5056215;28;20029;-75
2021/05/08 12:46:58;;;;;;;8.90;5.90;;;13.10;88.50;;;;;;5056285;28;20029;-74
2021/05/08 12:49:25;;;;;;;9.05;5.45;;;13.00;88.60;;;;;;5056224;28;20032;-75
2021/05/08 12:51:52;;;;;;;7.78;5.68;;;13.00;88.60;;;;;;5056103;28;20044;-78
2021/05/08 12:54:27;;;;;;;8.07;5.25;;;13.00;88.70;;;;;;5072709;28;20173;-77
2021/05/08 12:57:11;;;;;;;8.27;5.63;;;13.00;88.70;;;;;;5072556;28;20039;-79
2021/05/08 12:59:38;;;;;;;6.47;5.05;;;12.90;89.00;;;;;;5074052;28;20123;-78
2021/05/08 13:02:17;;;;;;;8.13;5.80;;;12.90;89.10;;;;;;5055930;28;20028;-78